Aviation Digital Data Service (ADDS)

Output produced by METARs form (1639 UTC 24 July 2016)
found at http://aviationweather.gov/adds/metars/
 
KHUL 241120Z 2412/2512 34008KT P6SM FEW050 SCT200 
     FM241700 32007KT P6SM SCT060 
     FM250000 VRB03KT P6SM FEW080 SCT250 
     FM250800 VRB03KT P6SM SCT120 BKN220